createdAt,value
2023-04-20T00:02:03.277Z,100.00
2023-04-20T00:06:05.533Z,100.00
2023-04-20T00:10:08.783Z,100.00
2023-04-20T00:14:10.234Z,100.00
2023-04-20T00:18:11.782Z,100.00
2023-04-20T00:22:19.983Z,100.00
2023-04-20T00:26:21.469Z,100.00
2023-04-20T00:30:23.215Z,100.00
2023-04-20T00:34:24.655Z,100.00
2023-04-20T00:38:26.164Z,100.00
2023-04-20T00:42:27.647Z,100.00
2023-04-20T00:46:29.223Z,100.00
2023-04-20T00:50:30.944Z,100.00
2023-04-20T00:54:32.858Z,100.00
2023-04-20T00:58:34.390Z,100.00
2023-04-20T01:02:36.035Z,100.00
2023-04-20T01:06:38.327Z,100.00
2023-04-20T01:10:39.753Z,100.00
2023-04-20T01:14:41.169Z,100.00
2023-04-20T01:18:48.679Z,100.00
2023-04-20T01:22:51.796Z,100.00
2023-04-20T01:26:53.313Z,100.00
2023-04-20T01:30:54.771Z,100.00
2023-04-20T01:34:56.226Z,100.00
2023-04-20T01:38:58.376Z,100.00
2023-04-20T01:42:59.850Z,100.00
2023-04-20T01:47:01.551Z,100.00
2023-04-20T01:51:03.183Z,100.00
2023-04-20T01:55:05.215Z,100.00
2023-04-20T01:59:06.622Z,100.00
2023-04-20T02:03:08.154Z,100.00
2023-04-20T02:07:09.748Z,100.00
2023-04-20T02:11:11.176Z,100.00
2023-04-20T02:15:12.638Z,100.00
2023-04-20T02:19:14.129Z,100.00
2023-04-20T02:23:15.831Z,100.00
2023-04-20T02:27:17.255Z,100.00
2023-04-20T02:31:19.047Z,100.00
2023-04-20T02:35:20.796Z,100.00
2023-04-20T02:39:24.983Z,100.00
2023-04-20T02:43:26.403Z,100.00
2023-04-20T02:47:27.859Z,100.00
2023-04-20T02:51:29.616Z,100.00
2023-04-20T02:55:31.209Z,100.00
2023-04-20T02:59:32.669Z,100.00
2023-04-20T03:03:34.269Z,100.00
2023-04-20T03:07:36.034Z,100.00
2023-04-20T03:11:37.475Z,100.00
2023-04-20T03:15:39.177Z,100.00
2023-04-20T03:19:41.651Z,100.00
2023-04-20T03:23:43.071Z,100.00
2023-04-20T03:27:46.598Z,100.00
2023-04-20T03:31:48.189Z,100.00
2023-04-20T03:35:49.615Z,100.00
2023-04-20T03:39:51.053Z,100.00
2023-04-20T03:43:52.495Z,100.00
2023-04-20T03:47:54.084Z,100.00
2023-04-20T03:51:55.498Z,100.00
2023-04-20T03:55:57.068Z,100.00
2023-04-20T03:59:58.489Z,100.00
2023-04-20T04:04:00.202Z,100.00
2023-04-20T04:08:02.104Z,100.00
2023-04-20T04:12:05.248Z,100.00
2023-04-20T04:16:06.871Z,100.00
2023-04-20T04:20:09.134Z,100.00
2023-04-20T04:24:10.583Z,100.00
2023-04-20T04:28:12.513Z,100.00
2023-04-20T04:32:14.001Z,100.00
2023-04-20T04:36:15.777Z,100.00
2023-04-20T04:40:18.182Z,100.00
2023-04-20T04:44:19.805Z,100.00
2023-04-20T04:48:21.259Z,100.00
2023-04-20T04:52:22.877Z,100.00
2023-04-20T04:56:24.684Z,100.00
2023-04-20T05:00:26.112Z,100.00
2023-04-20T05:04:27.608Z,100.00
2023-04-20T05:08:29.124Z,100.00
2023-04-20T05:12:30.524Z,100.00
2023-04-20T05:16:32.019Z,100.00
2023-04-20T05:20:33.540Z,100.00
2023-04-20T05:24:35.122Z,100.00
2023-04-20T05:28:37.069Z,100.00
2023-04-20T05:32:38.475Z,100.00
2023-04-20T05:36:41.232Z,100.00
2023-04-20T05:40:42.709Z,100.00
2023-04-20T05:44:44.244Z,100.00
2023-04-20T05:48:46.000Z,100.00
2023-04-20T05:52:47.432Z,100.00
2023-04-20T05:56:51.232Z,100.00
2023-04-20T06:00:52.902Z,100.00
2023-04-20T06:04:54.458Z,100.00
2023-04-20T06:08:58.085Z,100.00
2023-04-20T06:12:59.547Z,100.00
2023-04-20T06:17:00.939Z,100.00
2023-04-20T06:21:03.221Z,100.00
2023-04-20T06:25:04.929Z,100.00
2023-04-20T06:29:06.378Z,100.00
2023-04-20T06:33:09.165Z,100.00
2023-04-20T06:37:11.676Z,100.00
2023-04-20T06:41:13.138Z,100.00
2023-04-20T06:45:14.644Z,100.00
2023-04-20T06:49:16.293Z,100.00
2023-04-20T06:53:18.112Z,100.00
2023-04-20T06:57:19.744Z,100.00
2023-04-20T07:01:21.720Z,100.00
2023-04-20T07:05:23.657Z,100.00
2023-04-20T07:09:25.123Z,100.00
2023-04-20T07:13:26.550Z,100.00
2023-04-20T07:17:28.187Z,100.00
2023-04-20T07:21:31.615Z,100.00
2023-04-20T07:25:33.049Z,100.00
2023-04-20T07:29:34.524Z,100.00
2023-04-20T07:33:36.201Z,100.00
2023-04-20T07:37:37.622Z,100.00
2023-04-20T07:41:39.033Z,100.00
2023-04-20T07:45:41.771Z,100.00
2023-04-20T07:49:43.931Z,100.00
2023-04-20T07:53:45.365Z,100.00
2023-04-20T07:57:46.992Z,100.00
2023-04-20T08:01:48.505Z,100.00
2023-04-20T08:05:50.000Z,100.00
2023-04-20T08:09:51.696Z,100.00
2023-04-20T08:13:53.118Z,100.00
2023-04-20T08:17:54.633Z,100.00
2023-04-20T08:21:56.348Z,100.00
2023-04-20T08:25:58.026Z,100.00
2023-04-20T08:29:59.482Z,100.00
2023-04-20T08:34:01.371Z,100.00
2023-04-20T08:38:02.841Z,100.00
2023-04-20T08:42:04.330Z,100.00
2023-04-20T08:46:06.007Z,100.00
2023-04-20T08:50:09.046Z,100.00
2023-04-20T08:54:11.419Z,100.00
2023-04-20T08:58:13.056Z,100.00
2023-04-20T09:02:14.860Z,100.00
2023-04-20T09:06:18.380Z,100.00
2023-04-20T09:10:19.911Z,100.00
2023-04-20T09:14:21.372Z,100.00
2023-04-20T09:18:24.662Z,100.00
2023-04-20T09:22:33.536Z,100.00
2023-04-20T09:26:36.097Z,100.00
2023-04-20T09:30:49.157Z,100.00
2023-04-20T09:34:50.885Z,100.00
2023-04-20T09:39:03.727Z,100.00
2023-04-20T09:43:18.099Z,100.00
2023-04-20T09:47:20.012Z,100.00
2023-04-20T09:51:24.318Z,100.00
2023-04-20T09:55:26.611Z,100.00
2023-04-20T09:59:28.845Z,100.00
2023-04-20T10:03:30.604Z,100.00
2023-04-20T10:07:33.107Z,100.00
2023-04-20T10:11:49.026Z,100.00
2023-04-20T10:15:54.427Z,100.00
2023-04-20T10:19:55.928Z,100.00
2023-04-20T10:23:58.973Z,100.00
2023-04-20T10:28:04.698Z,100.00
2023-04-20T10:32:06.227Z,100.00
2023-04-20T10:36:07.695Z,100.00
2023-04-20T10:40:10.580Z,100.00
2023-04-20T10:44:12.017Z,100.00
2023-04-20T10:48:15.997Z,100.00
2023-04-20T10:52:31.678Z,100.00
2023-04-20T10:56:40.668Z,100.00
2023-04-20T11:00:42.112Z,100.00
2023-04-20T11:04:43.661Z,100.00
2023-04-20T11:08:45.185Z,100.00
2023-04-20T11:12:46.948Z,100.00
2023-04-20T11:16:53.231Z,100.00
2023-04-20T11:20:56.266Z,100.00
2023-04-20T11:25:09.224Z,100.00
2023-04-20T11:29:10.700Z,100.00
2023-04-20T11:33:13.988Z,100.00
2023-04-20T11:37:15.710Z,100.00
2023-04-20T11:41:18.071Z,100.00
2023-04-20T11:45:21.808Z,100.00
2023-04-20T11:49:25.143Z,100.00
2023-04-20T11:53:26.784Z,100.00
2023-04-20T11:57:28.284Z,100.00
2023-04-20T12:01:30.045Z,100.00
2023-04-20T12:05:31.536Z,100.00
2023-04-20T12:09:38.336Z,100.00
2023-04-20T12:13:39.863Z,100.00
2023-04-20T12:17:41.343Z,100.00
2023-04-20T12:21:43.311Z,100.00
2023-04-20T12:25:44.939Z,100.00
2023-04-20T12:29:46.449Z,100.00
2023-04-20T12:33:47.877Z,95.47
2023-04-20T12:37:49.292Z,97.81
2023-04-20T12:41:50.810Z,96.41
2023-04-20T12:45:52.305Z,93.92
2023-04-20T12:49:55.222Z,89.05
2023-04-20T12:53:56.674Z,86.51
2023-04-20T12:57:58.155Z,84.03
2023-04-20T13:01:59.658Z,82.67
2023-04-20T13:06:01.658Z,76.86
2023-04-20T13:10:03.941Z,80.27
2023-04-20T13:14:05.724Z,71.41
2023-04-20T13:18:07.479Z,75.75
2023-04-20T13:22:08.947Z,73.85
2023-04-20T13:26:10.491Z,69.56
2023-04-20T13:30:12.693Z,67.54
2023-04-20T13:34:14.463Z,68.30
2023-04-20T13:38:16.068Z,72.38
2023-04-20T13:42:17.515Z,65.74
2023-04-20T13:46:20.152Z,64.97
2023-04-20T13:50:21.813Z,64.06
2023-04-20T13:54:23.240Z,67.78
2023-04-20T13:58:24.711Z,67.46
2023-04-20T14:02:27.388Z,66.51
2023-04-20T14:06:29.107Z,63.67
2023-04-20T14:10:30.636Z,61.07
2023-04-20T14:14:32.151Z,62.20
2023-04-20T14:18:33.657Z,68.11
2023-04-20T14:22:36.635Z,75.19
2023-04-20T14:26:38.123Z,77.99
2023-04-20T14:30:39.617Z,87.31
2023-04-20T14:34:41.184Z,89.25
2023-04-20T14:38:42.687Z,91.20
2023-04-20T14:42:45.031Z,88.38
2023-04-20T14:46:46.589Z,90.75
2023-04-20T14:50:48.210Z,89.70
2023-04-20T14:54:49.673Z,90.75
2023-04-20T14:58:51.249Z,82.94
2023-04-20T15:02:53.589Z,85.65
2023-04-20T15:06:55.205Z,75.22
2023-04-20T15:10:56.733Z,64.58
2023-04-20T15:14:58.173Z,61.80
2023-04-20T15:18:59.618Z,63.33
2023-04-20T15:23:01.032Z,74.43
2023-04-20T15:27:03.959Z,73.17
2023-04-20T15:31:07.951Z,77.75
2023-04-20T15:35:09.624Z,80.17
2023-04-20T15:39:11.446Z,83.32
2023-04-20T15:43:12.921Z,81.05
2023-04-20T15:47:15.328Z,83.60
2023-04-20T15:51:17.604Z,81.70
2023-04-20T15:55:19.058Z,85.77
2023-04-20T15:59:20.733Z,83.03
2023-04-20T16:03:22.337Z,81.43
2023-04-20T16:07:23.823Z,82.15
2023-04-20T16:11:25.258Z,81.73
2023-04-20T16:15:26.831Z,83.78
2023-04-20T16:19:28.668Z,83.06
2023-04-20T16:23:31.292Z,84.24
2023-04-20T16:27:33.192Z,84.49
2023-04-20T16:31:36.658Z,88.14
2023-04-20T16:35:38.201Z,83.83
2023-04-20T16:39:40.474Z,75.16
2023-04-20T16:43:41.939Z,74.12
2023-04-20T16:47:43.530Z,69.51
2023-04-20T16:51:45.029Z,70.16
2023-04-20T16:55:46.541Z,75.27
2023-04-20T16:59:48.025Z,77.98
2023-04-20T17:03:49.547Z,83.03
2023-04-20T17:07:51.068Z,80.54
2023-04-20T17:11:52.735Z,84.29
2023-04-20T17:15:54.197Z,84.83
2023-04-20T17:19:55.931Z,86.30
2023-04-20T17:23:57.482Z,87.60
2023-04-20T17:27:58.952Z,89.18
2023-04-20T17:32:00.660Z,90.25
2023-04-20T17:36:02.142Z,93.43
2023-04-20T17:40:05.044Z,95.34
2023-04-20T17:44:06.524Z,97.14
2023-04-20T17:48:08.993Z,99.29
2023-04-20T17:52:14.811Z,100.00
2023-04-20T17:56:16.331Z,100.00
2023-04-20T18:00:18.639Z,100.00
2023-04-20T18:04:21.124Z,100.00
2023-04-20T18:08:23.563Z,100.00
2023-04-20T18:12:25.093Z,100.00
2023-04-20T18:16:26.804Z,100.00
2023-04-20T18:20:29.943Z,100.00
2023-04-20T18:24:33.864Z,100.00
2023-04-20T18:28:35.638Z,100.00
2023-04-20T18:32:38.357Z,100.00
2023-04-20T18:36:40.548Z,100.00
2023-04-20T18:40:42.032Z,100.00
2023-04-20T18:44:43.605Z,100.00
2023-04-20T18:48:45.057Z,100.00
2023-04-20T18:52:46.617Z,100.00
2023-04-20T18:56:50.639Z,100.00
2023-04-20T19:00:52.166Z,100.00
2023-04-20T19:04:53.731Z,100.00
2023-04-20T19:08:55.882Z,100.00
2023-04-20T19:12:57.491Z,100.00
2023-04-20T19:16:59.163Z,100.00
2023-04-20T19:21:00.771Z,100.00
2023-04-20T19:25:02.360Z,100.00
2023-04-20T19:29:04.137Z,100.00
2023-04-20T19:33:06.029Z,100.00
2023-04-20T19:37:07.600Z,100.00
2023-04-20T19:41:09.890Z,100.00
2023-04-20T19:45:11.800Z,100.00
2023-04-20T19:49:13.367Z,100.00
2023-04-20T19:53:15.709Z,100.00
2023-04-20T19:57:17.149Z,100.00
2023-04-20T20:01:19.308Z,100.00
2023-04-20T20:05:20.818Z,100.00
2023-04-20T20:09:24.199Z,100.00
2023-04-20T20:13:26.401Z,100.00
2023-04-20T20:17:27.965Z,100.00
2023-04-20T20:21:29.749Z,100.00
2023-04-20T20:25:35.071Z,100.00
2023-04-20T20:29:36.888Z,100.00
2023-04-20T20:33:38.359Z,100.00
2023-04-20T20:37:41.113Z,100.00
2023-04-20T20:41:46.533Z,100.00
2023-04-20T20:45:48.000Z,100.00
2023-04-20T20:49:49.542Z,100.00
2023-04-20T20:53:50.993Z,100.00
2023-04-20T20:57:52.628Z,100.00
2023-04-20T21:01:54.332Z,100.00
2023-04-20T21:05:55.807Z,100.00
2023-04-20T21:09:57.245Z,100.00
2023-04-20T21:14:01.801Z,100.00
2023-04-20T21:18:03.840Z,100.00
2023-04-20T21:22:05.491Z,100.00
2023-04-20T21:26:06.918Z,100.00
2023-04-20T21:30:11.431Z,100.00
2023-04-20T21:34:13.282Z,100.00
2023-04-20T21:38:14.757Z,100.00
2023-04-20T21:42:16.438Z,100.00
2023-04-20T21:46:18.057Z,100.00
2023-04-20T21:50:19.688Z,100.00
2023-04-20T21:54:21.188Z,100.00
2023-04-20T21:58:22.663Z,100.00
2023-04-20T22:02:24.234Z,100.00
2023-04-20T22:06:25.758Z,100.00
2023-04-20T22:10:28.014Z,100.00
2023-04-20T22:14:29.594Z,100.00
2023-04-20T22:18:31.046Z,100.00
2023-04-20T22:22:32.936Z,100.00
2023-04-20T22:26:34.518Z,100.00
2023-04-20T22:30:36.266Z,100.00
2023-04-20T22:34:37.807Z,100.00
2023-04-20T22:38:39.358Z,100.00
2023-04-20T22:42:40.922Z,100.00
2023-04-20T22:46:42.482Z,100.00
2023-04-20T22:50:43.942Z,100.00
2023-04-20T22:54:48.176Z,100.00
2023-04-20T22:58:49.863Z,100.00
2023-04-20T23:02:51.578Z,100.00
2023-04-20T23:06:55.972Z,100.00
2023-04-20T23:10:57.442Z,100.00
2023-04-20T23:15:02.090Z,100.00
2023-04-20T23:19:03.550Z,100.00
2023-04-20T23:23:07.402Z,100.00
2023-04-20T23:27:08.846Z,100.00
2023-04-20T23:31:10.323Z,100.00
2023-04-20T23:35:12.204Z,100.00
2023-04-20T23:39:13.647Z,100.00
2023-04-20T23:43:15.309Z,100.00
2023-04-20T23:47:18.135Z,100.00
2023-04-20T23:51:19.558Z,100.00
2023-04-20T23:55:21.060Z,100.00
2023-04-20T23:59:22.523Z,100.00
